sensor_id;sensor_type;location;lat;lon;timestamp;P1;durP1;ratioP1;P2;durP2;ratioP2
68680;SDS011;55836;49.858;6.756;2023-07-30T00:00:21;1.93;;;1.40;;
68680;SDS011;55836;49.858;6.756;2023-07-30T00:02:47;2.00;;;1.50;;
68680;SDS011;55836;49.858;6.756;2023-07-30T00:05:13;1.87;;;1.63;;
68680;SDS011;55836;49.858;6.756;2023-07-30T00:07:39;2.37;;;1.70;;
68680;SDS011;55836;49.858;6.756;2023-07-30T00:10:05;2.57;;;1.67;;
68680;SDS011;55836;49.858;6.756;2023-07-30T00:12:31;1.80;;;1.70;;
68680;SDS011;55836;49.858;6.756;2023-07-30T00:14:57;2.47;;;1.60;;
68680;SDS011;55836;49.858;6.756;2023-07-30T00:17:24;1.90;;;1.50;;
68680;SDS011;55836;49.858;6.756;2023-07-30T00:19:50;1.73;;;1.60;;
68680;SDS011;55836;49.858;6.756;2023-07-30T00:22:15;2.90;;;1.90;;
68680;SDS011;55836;49.858;6.756;2023-07-30T00:24:42;1.40;;;1.30;;
68680;SDS011;55836;49.858;6.756;2023-07-30T00:27:08;2.37;;;1.50;;
68680;SDS011;55836;49.858;6.756;2023-07-30T00:29:34;2.40;;;1.87;;
68680;SDS011;55836;49.858;6.756;2023-07-30T00:32:00;3.93;;;1.80;;
68680;SDS011;55836;49.858;6.756;2023-07-30T00:34:26;2.13;;;1.57;;
68680;SDS011;55836;49.858;6.756;2023-07-30T00:36:52;2.33;;;1.97;;
68680;SDS011;55836;49.858;6.756;2023-07-30T00:39:18;6.23;;;1.90;;
68680;SDS011;55836;49.858;6.756;2023-07-30T00:41:44;2.00;;;1.80;;
68680;SDS011;55836;49.858;6.756;2023-07-30T00:44:11;1.77;;;1.63;;
68680;SDS011;55836;49.858;6.756;2023-07-30T00:46:37;1.83;;;1.73;;
68680;SDS011;55836;49.858;6.756;2023-07-30T00:49:03;1.90;;;1.60;;
68680;SDS011;55836;49.858;6.756;2023-07-30T00:51:29;1.93;;;1.50;;
68680;SDS011;55836;49.858;6.756;2023-07-30T00:53:56;2.13;;;1.63;;
68680;SDS011;55836;49.858;6.756;2023-07-30T00:56:22;2.33;;;2.13;;
68680;SDS011;55836;49.858;6.756;2023-07-30T00:58:48;4.40;;;1.80;;
68680;SDS011;55836;49.858;6.756;2023-07-30T01:01:14;1.93;;;1.67;;
68680;SDS011;55836;49.858;6.756;2023-07-30T01:03:41;1.90;;;1.80;;
68680;SDS011;55836;49.858;6.756;2023-07-30T01:06:07;2.20;;;1.80;;
68680;SDS011;55836;49.858;6.756;2023-07-30T01:08:33;1.77;;;1.50;;
68680;SDS011;55836;49.858;6.756;2023-07-30T01:10:59;2.30;;;1.83;;
68680;SDS011;55836;49.858;6.756;2023-07-30T01:13:25;2.60;;;1.73;;
68680;SDS011;55836;49.858;6.756;2023-07-30T01:15:52;2.70;;;1.80;;
68680;SDS011;55836;49.858;6.756;2023-07-30T01:18:18;2.73;;;1.50;;
68680;SDS011;55836;49.858;6.756;2023-07-30T01:20:46;2.10;;;1.90;;
68680;SDS011;55836;49.858;6.756;2023-07-30T01:23:12;1.90;;;1.67;;
68680;SDS011;55836;49.858;6.756;2023-07-30T01:25:38;5.17;;;2.10;;
68680;SDS011;55836;49.858;6.756;2023-07-30T01:28:05;5.20;;;2.00;;
68680;SDS011;55836;49.858;6.756;2023-07-30T01:30:33;3.30;;;1.80;;
68680;SDS011;55836;49.858;6.756;2023-07-30T01:33:02;3.10;;;1.70;;
68680;SDS011;55836;49.858;6.756;2023-07-30T01:35:29;2.23;;;1.80;;
68680;SDS011;55836;49.858;6.756;2023-07-30T01:37:56;2.73;;;1.80;;
68680;SDS011;55836;49.858;6.756;2023-07-30T01:40:23;3.97;;;2.07;;
68680;SDS011;55836;49.858;6.756;2023-07-30T01:42:49;3.23;;;1.87;;
68680;SDS011;55836;49.858;6.756;2023-07-30T01:45:15;3.40;;;2.10;;
68680;SDS011;55836;49.858;6.756;2023-07-30T01:47:41;2.53;;;1.90;;
68680;SDS011;55836;49.858;6.756;2023-07-30T01:50:07;2.50;;;1.80;;
68680;SDS011;55836;49.858;6.756;2023-07-30T01:52:33;4.23;;;1.90;;
68680;SDS011;55836;49.858;6.756;2023-07-30T01:54:59;3.30;;;1.80;;
68680;SDS011;55836;49.858;6.756;2023-07-30T01:57:26;3.00;;;1.93;;
68680;SDS011;55836;49.858;6.756;2023-07-30T01:59:52;4.67;;;2.00;;
68680;SDS011;55836;49.858;6.756;2023-07-30T02:02:18;2.80;;;2.03;;
68680;SDS011;55836;49.858;6.756;2023-07-30T02:04:44;3.30;;;2.30;;
68680;SDS011;55836;49.858;6.756;2023-07-30T02:07:10;2.17;;;1.90;;
68680;SDS011;55836;49.858;6.756;2023-07-30T02:09:36;2.70;;;1.87;;
68680;SDS011;55836;49.858;6.756;2023-07-30T02:12:02;2.23;;;1.87;;
68680;SDS011;55836;49.858;6.756;2023-07-30T02:14:28;1.93;;;1.70;;
68680;SDS011;55836;49.858;6.756;2023-07-30T02:16:54;3.20;;;1.77;;
68680;SDS011;55836;49.858;6.756;2023-07-30T02:19:20;3.57;;;2.37;;
68680;SDS011;55836;49.858;6.756;2023-07-30T02:21:46;3.00;;;2.20;;
68680;SDS011;55836;49.858;6.756;2023-07-30T02:24:12;2.30;;;2.10;;
68680;SDS011;55836;49.858;6.756;2023-07-30T02:26:38;2.50;;;2.10;;
68680;SDS011;55836;49.858;6.756;2023-07-30T02:29:04;2.43;;;2.23;;
68680;SDS011;55836;49.858;6.756;2023-07-30T02:31:30;3.77;;;2.40;;
68680;SDS011;55836;49.858;6.756;2023-07-30T02:33:57;3.27;;;1.93;;
68680;SDS011;55836;49.858;6.756;2023-07-30T02:36:23;7.53;;;2.23;;
68680;SDS011;55836;49.858;6.756;2023-07-30T02:38:49;2.30;;;2.10;;
68680;SDS011;55836;49.858;6.756;2023-07-30T02:41:15;3.90;;;2.60;;
68680;SDS011;55836;49.858;6.756;2023-07-30T02:43:41;2.87;;;2.60;;
68680;SDS011;55836;49.858;6.756;2023-07-30T02:46:07;4.97;;;2.40;;
68680;SDS011;55836;49.858;6.756;2023-07-30T02:48:33;3.10;;;2.40;;
68680;SDS011;55836;49.858;6.756;2023-07-30T02:50:59;3.53;;;2.00;;
68680;SDS011;55836;49.858;6.756;2023-07-30T02:53:25;2.93;;;2.73;;
68680;SDS011;55836;49.858;6.756;2023-07-30T02:55:51;5.17;;;2.50;;
68680;SDS011;55836;49.858;6.756;2023-07-30T02:58:17;4.00;;;2.60;;
68680;SDS011;55836;49.858;6.756;2023-07-30T03:00:44;2.90;;;2.53;;
68680;SDS011;55836;49.858;6.756;2023-07-30T03:03:10;4.70;;;2.33;;
68680;SDS011;55836;49.858;6.756;2023-07-30T03:05:36;2.90;;;2.60;;
68680;SDS011;55836;49.858;6.756;2023-07-30T03:08:02;2.43;;;2.23;;
68680;SDS011;55836;49.858;6.756;2023-07-30T03:10:28;3.60;;;2.40;;
68680;SDS011;55836;49.858;6.756;2023-07-30T03:12:54;2.30;;;2.10;;
68680;SDS011;55836;49.858;6.756;2023-07-30T03:15:20;3.77;;;2.50;;
68680;SDS011;55836;49.858;6.756;2023-07-30T03:17:46;3.73;;;2.13;;
68680;SDS011;55836;49.858;6.756;2023-07-30T03:20:12;4.37;;;2.77;;
68680;SDS011;55836;49.858;6.756;2023-07-30T03:22:38;3.60;;;2.37;;
68680;SDS011;55836;49.858;6.756;2023-07-30T03:25:04;3.50;;;2.23;;
68680;SDS011;55836;49.858;6.756;2023-07-30T03:27:30;2.73;;;2.23;;
68680;SDS011;55836;49.858;6.756;2023-07-30T03:29:56;2.83;;;2.50;;
68680;SDS011;55836;49.858;6.756;2023-07-30T03:32:22;2.30;;;2.10;;
68680;SDS011;55836;49.858;6.756;2023-07-30T03:34:48;3.93;;;2.20;;
68680;SDS011;55836;49.858;6.756;2023-07-30T03:37:14;3.33;;;2.00;;
68680;SDS011;55836;49.858;6.756;2023-07-30T03:39:40;4.03;;;2.40;;
68680;SDS011;55836;49.858;6.756;2023-07-30T03:42:06;4.60;;;2.70;;
68680;SDS011;55836;49.858;6.756;2023-07-30T03:44:32;4.73;;;2.20;;
68680;SDS011;55836;49.858;6.756;2023-07-30T03:46:58;3.57;;;2.53;;
68680;SDS011;55836;49.858;6.756;2023-07-30T03:49:24;4.17;;;2.60;;
68680;SDS011;55836;49.858;6.756;2023-07-30T03:51:50;2.57;;;2.37;;
68680;SDS011;55836;49.858;6.756;2023-07-30T03:54:19;5.07;;;2.50;;
68680;SDS011;55836;49.858;6.756;2023-07-30T03:56:45;4.43;;;2.47;;
68680;SDS011;55836;49.858;6.756;2023-07-30T03:59:11;3.27;;;2.40;;
68680;SDS011;55836;49.858;6.756;2023-07-30T04:01:37;5.77;;;2.43;;
68680;SDS011;55836;49.858;6.756;2023-07-30T04:04:03;2.40;;;2.20;;
68680;SDS011;55836;49.858;6.756;2023-07-30T04:06:29;5.30;;;2.70;;
68680;SDS011;55836;49.858;6.756;2023-07-30T04:08:55;3.23;;;2.57;;
68680;SDS011;55836;49.858;6.756;2023-07-30T04:11:21;6.03;;;2.40;;
68680;SDS011;55836;49.858;6.756;2023-07-30T04:13:47;2.83;;;2.57;;
68680;SDS011;55836;49.858;6.756;2023-07-30T04:16:13;2.70;;;2.33;;
68680;SDS011;55836;49.858;6.756;2023-07-30T04:18:39;4.37;;;2.33;;
68680;SDS011;55836;49.858;6.756;2023-07-30T04:21:05;3.60;;;2.17;;
68680;SDS011;55836;49.858;6.756;2023-07-30T04:23:31;5.07;;;2.57;;
68680;SDS011;55836;49.858;6.756;2023-07-30T04:25:57;3.10;;;2.27;;
68680;SDS011;55836;49.858;6.756;2023-07-30T04:28:23;3.47;;;2.27;;
68680;SDS011;55836;49.858;6.756;2023-07-30T04:30:49;3.97;;;2.70;;
68680;SDS011;55836;49.858;6.756;2023-07-30T04:33:15;2.43;;;1.87;;
68680;SDS011;55836;49.858;6.756;2023-07-30T04:35:42;3.57;;;2.60;;
68680;SDS011;55836;49.858;6.756;2023-07-30T04:38:08;5.87;;;2.37;;
68680;SDS011;55836;49.858;6.756;2023-07-30T04:40:34;2.60;;;2.40;;
68680;SDS011;55836;49.858;6.756;2023-07-30T04:43:00;3.50;;;2.30;;
68680;SDS011;55836;49.858;6.756;2023-07-30T04:45:26;3.53;;;2.57;;
68680;SDS011;55836;49.858;6.756;2023-07-30T04:47:52;3.33;;;2.57;;
68680;SDS011;55836;49.858;6.756;2023-07-30T04:50:18;4.43;;;2.47;;
68680;SDS011;55836;49.858;6.756;2023-07-30T04:52:44;3.80;;;2.37;;
68680;SDS011;55836;49.858;6.756;2023-07-30T04:55:10;8.37;;;2.70;;
68680;SDS011;55836;49.858;6.756;2023-07-30T04:57:36;2.50;;;2.30;;
68680;SDS011;55836;49.858;6.756;2023-07-30T05:00:02;3.33;;;2.83;;
68680;SDS011;55836;49.858;6.756;2023-07-30T05:02:29;4.00;;;2.60;;
68680;SDS011;55836;49.858;6.756;2023-07-30T05:04:55;9.03;;;3.13;;
68680;SDS011;55836;49.858;6.756;2023-07-30T05:07:21;4.37;;;2.90;;
68680;SDS011;55836;49.858;6.756;2023-07-30T05:09:47;5.30;;;3.20;;
68680;SDS011;55836;49.858;6.756;2023-07-30T05:12:13;6.67;;;3.90;;
68680;SDS011;55836;49.858;6.756;2023-07-30T05:14:39;12.97;;;4.53;;
68680;SDS011;55836;49.858;6.756;2023-07-30T05:17:05;6.83;;;4.33;;
68680;SDS011;55836;49.858;6.756;2023-07-30T05:19:31;5.47;;;3.80;;
68680;SDS011;55836;49.858;6.756;2023-07-30T05:21:57;4.63;;;4.00;;
68680;SDS011;55836;49.858;6.756;2023-07-30T05:24:24;5.53;;;4.43;;
68680;SDS011;55836;49.858;6.756;2023-07-30T05:26:50;6.23;;;4.40;;
68680;SDS011;55836;49.858;6.756;2023-07-30T05:29:16;5.13;;;4.00;;
68680;SDS011;55836;49.858;6.756;2023-07-30T05:31:42;8.10;;;4.97;;
68680;SDS011;55836;49.858;6.756;2023-07-30T05:34:08;9.23;;;4.70;;
68680;SDS011;55836;49.858;6.756;2023-07-30T05:36:34;5.67;;;4.57;;
68680;SDS011;55836;49.858;6.756;2023-07-30T05:39:00;7.07;;;4.37;;
68680;SDS011;55836;49.858;6.756;2023-07-30T05:41:26;5.00;;;4.00;;
68680;SDS011;55836;49.858;6.756;2023-07-30T05:43:52;6.60;;;5.27;;
68680;SDS011;55836;49.858;6.756;2023-07-30T05:46:18;7.30;;;4.17;;
68680;SDS011;55836;49.858;6.756;2023-07-30T05:48:44;5.43;;;4.23;;
68680;SDS011;55836;49.858;6.756;2023-07-30T05:51:10;5.80;;;4.60;;
68680;SDS011;55836;49.858;6.756;2023-07-30T05:53:37;4.13;;;3.40;;
68680;SDS011;55836;49.858;6.756;2023-07-30T05:56:03;5.47;;;4.00;;
68680;SDS011;55836;49.858;6.756;2023-07-30T05:58:29;3.70;;;3.33;;
68680;SDS011;55836;49.858;6.756;2023-07-30T06:00:55;3.60;;;3.30;;
68680;SDS011;55836;49.858;6.756;2023-07-30T06:03:21;7.50;;;3.60;;
68680;SDS011;55836;49.858;6.756;2023-07-30T06:05:47;5.57;;;3.83;;
68680;SDS011;55836;49.858;6.756;2023-07-30T06:08:14;4.70;;;3.90;;
68680;SDS011;55836;49.858;6.756;2023-07-30T06:10:40;4.10;;;3.47;;
68680;SDS011;55836;49.858;6.756;2023-07-30T06:13:06;6.60;;;4.40;;
68680;SDS011;55836;49.858;6.756;2023-07-30T06:15:32;5.57;;;4.00;;
68680;SDS011;55836;49.858;6.756;2023-07-30T06:17:58;7.47;;;4.57;;
68680;SDS011;55836;49.858;6.756;2023-07-30T06:20:24;4.17;;;3.63;;
68680;SDS011;55836;49.858;6.756;2023-07-30T06:22:50;6.73;;;4.60;;
68680;SDS011;55836;49.858;6.756;2023-07-30T06:25:16;3.23;;;2.93;;
68680;SDS011;55836;49.858;6.756;2023-07-30T06:27:42;2.40;;;2.10;;
68680;SDS011;55836;49.858;6.756;2023-07-30T06:30:09;2.63;;;2.10;;
68680;SDS011;55836;49.858;6.756;2023-07-30T06:32:35;1.97;;;1.73;;
68680;SDS011;55836;49.858;6.756;2023-07-30T06:35:01;2.20;;;1.93;;
68680;SDS011;55836;49.858;6.756;2023-07-30T06:37:28;2.50;;;1.80;;
68680;SDS011;55836;49.858;6.756;2023-07-30T06:39:54;2.10;;;1.90;;
68680;SDS011;55836;49.858;6.756;2023-07-30T06:42:20;2.17;;;1.90;;
68680;SDS011;55836;49.858;6.756;2023-07-30T06:44:46;3.67;;;1.93;;
68680;SDS011;55836;49.858;6.756;2023-07-30T06:47:12;2.23;;;2.07;;
68680;SDS011;55836;49.858;6.756;2023-07-30T06:49:38;3.67;;;1.80;;
68680;SDS011;55836;49.858;6.756;2023-07-30T06:52:04;2.17;;;1.77;;
68680;SDS011;55836;49.858;6.756;2023-07-30T06:54:30;5.23;;;2.57;;
68680;SDS011;55836;49.858;6.756;2023-07-30T06:56:56;1.87;;;1.70;;
68680;SDS011;55836;49.858;6.756;2023-07-30T06:59:22;2.23;;;1.63;;
68680;SDS011;55836;49.858;6.756;2023-07-30T07:01:48;2.10;;;1.60;;
68680;SDS011;55836;49.858;6.756;2023-07-30T07:04:14;1.50;;;1.40;;
68680;SDS011;55836;49.858;6.756;2023-07-30T07:06:40;1.57;;;1.40;;
68680;SDS011;55836;49.858;6.756;2023-07-30T07:09:06;2.20;;;1.47;;
68680;SDS011;55836;49.858;6.756;2023-07-30T07:11:32;2.00;;;1.57;;
68680;SDS011;55836;49.858;6.756;2023-07-30T07:13:58;2.10;;;1.90;;
68680;SDS011;55836;49.858;6.756;2023-07-30T07:16:24;3.40;;;1.50;;
68680;SDS011;55836;49.858;6.756;2023-07-30T07:18:50;2.23;;;2.00;;
68680;SDS011;55836;49.858;6.756;2023-07-30T07:21:16;1.47;;;1.37;;
68680;SDS011;55836;49.858;6.756;2023-07-30T07:23:42;1.43;;;1.33;;
68680;SDS011;55836;49.858;6.756;2023-07-30T07:26:08;4.30;;;1.63;;
68680;SDS011;55836;49.858;6.756;2023-07-30T07:28:34;1.33;;;1.20;;
68680;SDS011;55836;49.858;6.756;2023-07-30T07:31:00;2.13;;;1.20;;
68680;SDS011;55836;49.858;6.756;2023-07-30T07:33:26;2.10;;;1.40;;
68680;SDS011;55836;49.858;6.756;2023-07-30T07:36:02;1.57;;;1.40;;
68680;SDS011;55836;49.858;6.756;2023-07-30T07:38:28;1.73;;;1.20;;
68680;SDS011;55836;49.858;6.756;2023-07-30T07:40:54;1.47;;;1.30;;
68680;SDS011;55836;49.858;6.756;2023-07-30T07:43:20;3.53;;;1.60;;
68680;SDS011;55836;49.858;6.756;2023-07-30T07:45:46;2.90;;;1.30;;
68680;SDS011;55836;49.858;6.756;2023-07-30T07:48:12;1.70;;;1.50;;
68680;SDS011;55836;49.858;6.756;2023-07-30T07:50:38;4.67;;;1.87;;
68680;SDS011;55836;49.858;6.756;2023-07-30T07:53:04;2.73;;;1.50;;
68680;SDS011;55836;49.858;6.756;2023-07-30T07:55:30;1.70;;;1.40;;
68680;SDS011;55836;49.858;6.756;2023-07-30T07:57:56;2.90;;;1.40;;
68680;SDS011;55836;49.858;6.756;2023-07-30T08:00:22;7.33;;;1.60;;
68680;SDS011;55836;49.858;6.756;2023-07-30T08:02:48;1.87;;;1.37;;
68680;SDS011;55836;49.858;6.756;2023-07-30T08:05:14;3.93;;;1.70;;
68680;SDS011;55836;49.858;6.756;2023-07-30T08:07:41;3.93;;;1.93;;
68680;SDS011;55836;49.858;6.756;2023-07-30T08:10:07;3.43;;;1.80;;
68680;SDS011;55836;49.858;6.756;2023-07-30T08:12:33;4.47;;;2.20;;
68680;SDS011;55836;49.858;6.756;2023-07-30T08:14:59;4.23;;;1.57;;
68680;SDS011;55836;49.858;6.756;2023-07-30T08:17:25;4.60;;;1.73;;
68680;SDS011;55836;49.858;6.756;2023-07-30T08:19:51;5.70;;;1.93;;
68680;SDS011;55836;49.858;6.756;2023-07-30T08:22:17;4.60;;;1.70;;
68680;SDS011;55836;49.858;6.756;2023-07-30T08:24:43;5.80;;;1.87;;
68680;SDS011;55836;49.858;6.756;2023-07-30T08:27:09;4.73;;;1.60;;
68680;SDS011;55836;49.858;6.756;2023-07-30T08:29:35;3.20;;;1.80;;
68680;SDS011;55836;49.858;6.756;2023-07-30T08:32:01;5.97;;;2.07;;
68680;SDS011;55836;49.858;6.756;2023-07-30T08:34:27;4.17;;;1.73;;
68680;SDS011;55836;49.858;6.756;2023-07-30T08:36:53;3.27;;;1.63;;
68680;SDS011;55836;49.858;6.756;2023-07-30T08:39:19;6.03;;;1.73;;
68680;SDS011;55836;49.858;6.756;2023-07-30T08:41:45;6.53;;;2.03;;
68680;SDS011;55836;49.858;6.756;2023-07-30T08:44:12;6.80;;;2.00;;
68680;SDS011;55836;49.858;6.756;2023-07-30T08:46:38;6.17;;;1.90;;
68680;SDS011;55836;49.858;6.756;2023-07-30T08:49:04;4.90;;;2.37;;
68680;SDS011;55836;49.858;6.756;2023-07-30T08:51:30;5.20;;;2.00;;
68680;SDS011;55836;49.858;6.756;2023-07-30T08:53:57;4.97;;;2.10;;
68680;SDS011;55836;49.858;6.756;2023-07-30T08:56:23;4.83;;;2.03;;
68680;SDS011;55836;49.858;6.756;2023-07-30T08:58:50;5.17;;;2.23;;
68680;SDS011;55836;49.858;6.756;2023-07-30T09:01:18;8.50;;;1.90;;
68680;SDS011;55836;49.858;6.756;2023-07-30T09:03:44;10.17;;;2.17;;
68680;SDS011;55836;49.858;6.756;2023-07-30T09:06:10;6.83;;;2.17;;
68680;SDS011;55836;49.858;6.756;2023-07-30T09:08:36;3.60;;;1.77;;
68680;SDS011;55836;49.858;6.756;2023-07-30T09:11:09;5.27;;;1.77;;
68680;SDS011;55836;49.858;6.756;2023-07-30T09:13:38;8.17;;;2.20;;
68680;SDS011;55836;49.858;6.756;2023-07-30T09:16:08;8.13;;;2.00;;
68680;SDS011;55836;49.858;6.756;2023-07-30T09:18:42;5.63;;;2.10;;
68680;SDS011;55836;49.858;6.756;2023-07-30T09:21:09;4.47;;;2.20;;
68680;SDS011;55836;49.858;6.756;2023-07-30T09:23:43;7.70;;;2.07;;
68680;SDS011;55836;49.858;6.756;2023-07-30T09:26:12;5.03;;;1.87;;
68680;SDS011;55836;49.858;6.756;2023-07-30T09:29:06;5.40;;;1.80;;
68680;SDS011;55836;49.858;6.756;2023-07-30T09:31:41;4.60;;;1.80;;
68680;SDS011;55836;49.858;6.756;2023-07-30T09:34:08;8.07;;;2.47;;
68680;SDS011;55836;49.858;6.756;2023-07-30T09:36:34;8.17;;;2.40;;
68680;SDS011;55836;49.858;6.756;2023-07-30T09:39:00;3.87;;;2.40;;
68680;SDS011;55836;49.858;6.756;2023-07-30T09:41:27;4.00;;;2.03;;
68680;SDS011;55836;49.858;6.756;2023-07-30T09:43:57;7.40;;;2.40;;
68680;SDS011;55836;49.858;6.756;2023-07-30T09:46:24;6.47;;;2.53;;
68680;SDS011;55836;49.858;6.756;2023-07-30T09:48:55;5.27;;;2.30;;
68680;SDS011;55836;49.858;6.756;2023-07-30T09:51:22;6.10;;;2.43;;
68680;SDS011;55836;49.858;6.756;2023-07-30T09:53:48;6.73;;;2.17;;
68680;SDS011;55836;49.858;6.756;2023-07-30T09:56:14;3.20;;;1.70;;
68680;SDS011;55836;49.858;6.756;2023-07-30T09:58:40;5.53;;;1.90;;
68680;SDS011;55836;49.858;6.756;2023-07-30T10:01:07;5.23;;;1.73;;
68680;SDS011;55836;49.858;6.756;2023-07-30T10:03:34;4.10;;;1.80;;
68680;SDS011;55836;49.858;6.756;2023-07-30T10:06:03;5.97;;;2.20;;
68680;SDS011;55836;49.858;6.756;2023-07-30T10:08:34;4.90;;;1.90;;
68680;SDS011;55836;49.858;6.756;2023-07-30T10:11:03;6.90;;;2.30;;
68680;SDS011;55836;49.858;6.756;2023-07-30T10:13:30;5.80;;;2.00;;
68680;SDS011;55836;49.858;6.756;2023-07-30T10:15:56;5.43;;;1.77;;
68680;SDS011;55836;49.858;6.756;2023-07-30T10:18:32;4.77;;;1.80;;
68680;SDS011;55836;49.858;6.756;2023-07-30T10:20:59;6.60;;;1.97;;
68680;SDS011;55836;49.858;6.756;2023-07-30T10:23:28;8.20;;;2.23;;
68680;SDS011;55836;49.858;6.756;2023-07-30T10:25:54;4.70;;;2.40;;
68680;SDS011;55836;49.858;6.756;2023-07-30T10:30:57;8.20;;;2.17;;
68680;SDS011;55836;49.858;6.756;2023-07-30T10:33:24;5.63;;;2.47;;
68680;SDS011;55836;49.858;6.756;2023-07-30T10:36:09;5.47;;;2.10;;
68680;SDS011;55836;49.858;6.756;2023-07-30T10:38:35;6.40;;;2.07;;
68680;SDS011;55836;49.858;6.756;2023-07-30T10:43:34;7.27;;;2.00;;
68680;SDS011;55836;49.858;6.756;2023-07-30T10:46:00;6.17;;;2.00;;
68680;SDS011;55836;49.858;6.756;2023-07-30T10:48:36;3.73;;;1.90;;
68680;SDS011;55836;49.858;6.756;2023-07-30T10:51:03;4.07;;;1.77;;
68680;SDS011;55836;49.858;6.756;2023-07-30T10:53:29;3.23;;;1.60;;
68680;SDS011;55836;49.858;6.756;2023-07-30T10:55:59;5.03;;;2.00;;
68680;SDS011;55836;49.858;6.756;2023-07-30T10:58:30;6.40;;;1.90;;
68680;SDS011;55836;49.858;6.756;2023-07-30T11:00:57;6.50;;;2.00;;
68680;SDS011;55836;49.858;6.756;2023-07-30T11:03:26;5.37;;;1.83;;
68680;SDS011;55836;49.858;6.756;2023-07-30T11:05:53;5.70;;;1.93;;
68680;SDS011;55836;49.858;6.756;2023-07-30T11:08:21;6.40;;;1.80;;
68680;SDS011;55836;49.858;6.756;2023-07-30T11:10:47;5.47;;;1.83;;
68680;SDS011;55836;49.858;6.756;2023-07-30T11:13:13;5.13;;;2.10;;
68680;SDS011;55836;49.858;6.756;2023-07-30T11:15:40;5.83;;;2.20;;
68680;SDS011;55836;49.858;6.756;2023-07-30T11:18:06;3.00;;;1.67;;
68680;SDS011;55836;49.858;6.756;2023-07-30T11:20:33;6.07;;;2.37;;
68680;SDS011;55836;49.858;6.756;2023-07-30T11:22:59;4.70;;;1.70;;
68680;SDS011;55836;49.858;6.756;2023-07-30T11:25:26;5.63;;;2.00;;
68680;SDS011;55836;49.858;6.756;2023-07-30T11:27:52;6.10;;;2.30;;
68680;SDS011;55836;49.858;6.756;2023-07-30T11:30:18;5.67;;;2.30;;
68680;SDS011;55836;49.858;6.756;2023-07-30T11:32:44;7.73;;;2.60;;
68680;SDS011;55836;49.858;6.756;2023-07-30T11:35:14;3.93;;;1.70;;
68680;SDS011;55836;49.858;6.756;2023-07-30T11:37:42;6.63;;;2.03;;
68680;SDS011;55836;49.858;6.756;2023-07-30T11:40:11;8.93;;;2.27;;
68680;SDS011;55836;49.858;6.756;2023-07-30T11:42:38;4.47;;;1.50;;
68680;SDS011;55836;49.858;6.756;2023-07-30T11:45:21;4.67;;;1.70;;
68680;SDS011;55836;49.858;6.756;2023-07-30T11:47:47;5.00;;;2.17;;
68680;SDS011;55836;49.858;6.756;2023-07-30T11:50:14;5.67;;;1.80;;
68680;SDS011;55836;49.858;6.756;2023-07-30T11:52:52;5.27;;;1.70;;
68680;SDS011;55836;49.858;6.756;2023-07-30T11:55:19;9.97;;;2.07;;
68680;SDS011;55836;49.858;6.756;2023-07-30T11:57:45;4.77;;;1.97;;
68680;SDS011;55836;49.858;6.756;2023-07-30T12:00:11;5.37;;;1.93;;
68680;SDS011;55836;49.858;6.756;2023-07-30T12:02:37;5.23;;;1.90;;
68680;SDS011;55836;49.858;6.756;2023-07-30T12:05:04;5.60;;;1.70;;
68680;SDS011;55836;49.858;6.756;2023-07-30T12:07:31;5.13;;;2.17;;
68680;SDS011;55836;49.858;6.756;2023-07-30T12:10:10;5.17;;;2.10;;
68680;SDS011;55836;49.858;6.756;2023-07-30T12:12:38;5.33;;;2.33;;
68680;SDS011;55836;49.858;6.756;2023-07-30T12:15:12;5.00;;;1.67;;
68680;SDS011;55836;49.858;6.756;2023-07-30T12:17:38;7.33;;;1.90;;
68680;SDS011;55836;49.858;6.756;2023-07-30T12:20:05;5.43;;;1.63;;
68680;SDS011;55836;49.858;6.756;2023-07-30T12:22:34;6.07;;;2.50;;
68680;SDS011;55836;49.858;6.756;2023-07-30T12:25:01;6.03;;;1.73;;
68680;SDS011;55836;49.858;6.756;2023-07-30T12:27:28;4.60;;;1.80;;
68680;SDS011;55836;49.858;6.756;2023-07-30T12:29:54;5.07;;;2.10;;
68680;SDS011;55836;49.858;6.756;2023-07-30T12:32:20;2.93;;;1.50;;
68680;SDS011;55836;49.858;6.756;2023-07-30T12:34:47;3.00;;;1.70;;
68680;SDS011;55836;49.858;6.756;2023-07-30T12:37:13;5.90;;;2.93;;
68680;SDS011;55836;49.858;6.756;2023-07-30T12:39:39;6.13;;;2.10;;
68680;SDS011;55836;49.858;6.756;2023-07-30T12:42:05;4.20;;;1.90;;
68680;SDS011;55836;49.858;6.756;2023-07-30T12:44:31;4.37;;;2.03;;
68680;SDS011;55836;49.858;6.756;2023-07-30T12:46:57;4.53;;;1.87;;
68680;SDS011;55836;49.858;6.756;2023-07-30T12:49:23;4.13;;;1.70;;
68680;SDS011;55836;49.858;6.756;2023-07-30T12:51:49;4.30;;;1.80;;
68680;SDS011;55836;49.858;6.756;2023-07-30T12:54:15;4.77;;;1.70;;
68680;SDS011;55836;49.858;6.756;2023-07-30T12:56:42;3.67;;;1.80;;
68680;SDS011;55836;49.858;6.756;2023-07-30T12:59:08;6.13;;;2.00;;
68680;SDS011;55836;49.858;6.756;2023-07-30T13:01:34;5.20;;;1.67;;
68680;SDS011;55836;49.858;6.756;2023-07-30T13:04:00;6.83;;;2.27;;
68680;SDS011;55836;49.858;6.756;2023-07-30T13:06:26;5.90;;;1.87;;
68680;SDS011;55836;49.858;6.756;2023-07-30T13:08:52;6.93;;;1.97;;
68680;SDS011;55836;49.858;6.756;2023-07-30T13:11:18;3.63;;;1.90;;
68680;SDS011;55836;49.858;6.756;2023-07-30T13:13:45;8.00;;;1.87;;
68680;SDS011;55836;49.858;6.756;2023-07-30T13:16:11;7.97;;;2.27;;
68680;SDS011;55836;49.858;6.756;2023-07-30T13:18:37;5.47;;;1.50;;
68680;SDS011;55836;49.858;6.756;2023-07-30T13:21:03;5.70;;;1.43;;
68680;SDS011;55836;49.858;6.756;2023-07-30T13:23:29;5.40;;;1.97;;
68680;SDS011;55836;49.858;6.756;2023-07-30T13:25:56;3.33;;;1.50;;
68680;SDS011;55836;49.858;6.756;2023-07-30T13:28:22;3.47;;;1.93;;
68680;SDS011;55836;49.858;6.756;2023-07-30T13:30:48;2.83;;;1.73;;
68680;SDS011;55836;49.858;6.756;2023-07-30T13:33:15;6.27;;;2.17;;
68680;SDS011;55836;49.858;6.756;2023-07-30T13:35:41;4.50;;;2.07;;
68680;SDS011;55836;49.858;6.756;2023-07-30T13:38:07;5.70;;;2.40;;
68680;SDS011;55836;49.858;6.756;2023-07-30T13:40:34;4.80;;;2.13;;
68680;SDS011;55836;49.858;6.756;2023-07-30T13:43:00;4.10;;;1.67;;
68680;SDS011;55836;49.858;6.756;2023-07-30T13:45:26;3.47;;;1.50;;
68680;SDS011;55836;49.858;6.756;2023-07-30T13:47:53;3.73;;;1.80;;
68680;SDS011;55836;49.858;6.756;2023-07-30T13:50:19;4.67;;;1.60;;
68680;SDS011;55836;49.858;6.756;2023-07-30T13:52:45;3.97;;;1.93;;
68680;SDS011;55836;49.858;6.756;2023-07-30T13:55:11;3.87;;;1.50;;
68680;SDS011;55836;49.858;6.756;2023-07-30T13:57:37;3.83;;;2.20;;
68680;SDS011;55836;49.858;6.756;2023-07-30T14:00:03;5.50;;;1.63;;
68680;SDS011;55836;49.858;6.756;2023-07-30T14:02:31;3.33;;;1.77;;
68680;SDS011;55836;49.858;6.756;2023-07-30T14:04:57;4.73;;;1.67;;
68680;SDS011;55836;49.858;6.756;2023-07-30T14:07:23;4.97;;;1.77;;
68680;SDS011;55836;49.858;6.756;2023-07-30T14:09:49;6.83;;;3.60;;
68680;SDS011;55836;49.858;6.756;2023-07-30T14:12:15;3.20;;;1.80;;
68680;SDS011;55836;49.858;6.756;2023-07-30T14:14:41;2.70;;;1.90;;
68680;SDS011;55836;49.858;6.756;2023-07-30T14:17:07;5.30;;;3.20;;
68680;SDS011;55836;49.858;6.756;2023-07-30T14:19:33;5.77;;;2.50;;
68680;SDS011;55836;49.858;6.756;2023-07-30T14:22:00;7.70;;;2.43;;
68680;SDS011;55836;49.858;6.756;2023-07-30T14:24:26;3.43;;;2.03;;
68680;SDS011;55836;49.858;6.756;2023-07-30T14:26:52;5.27;;;1.83;;
68680;SDS011;55836;49.858;6.756;2023-07-30T14:29:18;4.97;;;1.73;;
68680;SDS011;55836;49.858;6.756;2023-07-30T14:31:44;2.93;;;1.67;;
68680;SDS011;55836;49.858;6.756;2023-07-30T14:34:10;5.30;;;2.17;;
68680;SDS011;55836;49.858;6.756;2023-07-30T14:36:36;4.87;;;1.87;;
68680;SDS011;55836;49.858;6.756;2023-07-30T14:39:02;5.67;;;3.87;;
68680;SDS011;55836;49.858;6.756;2023-07-30T14:41:28;4.00;;;2.00;;
68680;SDS011;55836;49.858;6.756;2023-07-30T14:43:54;4.37;;;1.87;;
68680;SDS011;55836;49.858;6.756;2023-07-30T14:46:20;6.37;;;1.77;;
68680;SDS011;55836;49.858;6.756;2023-07-30T14:48:46;3.03;;;1.50;;